createdAt,value
2019-05-22T00:01:27.160Z,97.40
2019-05-22T00:03:57.930Z,97.20
2019-05-22T00:06:34.431Z,96.70
2019-05-22T00:09:07.731Z,96.00
2019-05-22T00:11:40.290Z,96.00
2019-05-22T00:14:10.698Z,96.00
2019-05-22T00:16:42.070Z,95.70
2019-05-22T00:19:13.214Z,94.80
2019-05-22T00:21:43.170Z,94.70
2019-05-22T00:24:12.555Z,95.30
2019-05-22T00:26:43.707Z,96.20
2019-05-22T00:29:13.201Z,95.90
2019-05-22T00:31:43.060Z,96.20
2019-05-22T00:34:14.006Z,95.60
2019-05-22T00:36:43.963Z,96.30
2019-05-22T00:39:14.296Z,96.50
2019-05-22T00:41:46.445Z,96.70
2019-05-22T00:44:17.452Z,96.00
2019-05-22T00:46:47.958Z,96.10
2019-05-22T00:49:18.059Z,96.90
2019-05-22T00:51:56.152Z,96.30
2019-05-22T00:54:43.015Z,95.90
2019-05-22T00:57:16.849Z,96.20
2019-05-22T00:59:47.955Z,96.10
2019-05-22T01:02:29.039Z,95.80
2019-05-22T01:04:58.359Z,95.60
2019-05-22T01:07:39.002Z,95.40
2019-05-22T01:10:11.702Z,96.30
2019-05-22T01:12:43.162Z,97.40
2019-05-22T01:15:15.592Z,97.70
2019-05-22T01:17:47.054Z,97.30
2019-05-22T01:20:21.168Z,97.60
2019-05-22T01:22:52.388Z,97.50
2019-05-22T01:25:22.746Z,96.70
2019-05-22T01:27:53.648Z,97.10
2019-05-22T01:30:43.124Z,97.30
2019-05-22T01:33:23.331Z,98.10
2019-05-22T01:36:01.670Z,97.20
2019-05-22T01:38:33.314Z,97.00
2019-05-22T01:41:23.395Z,95.80
2019-05-22T01:43:54.855Z,96.30
2019-05-22T01:46:25.616Z,98.00
2019-05-22T01:48:59.619Z,97.90
2019-05-22T01:51:29.114Z,97.30
2019-05-22T01:53:58.423Z,96.70
2019-05-22T01:56:29.901Z,96.50
2019-05-22T01:59:00.344Z,96.50
2019-05-22T02:01:30.458Z,96.50
2019-05-22T02:04:01.881Z,96.00
2019-05-22T02:06:31.452Z,95.90
2019-05-22T02:09:21.504Z,95.90
2019-05-22T02:11:54.148Z,95.90
2019-05-22T02:14:25.410Z,96.50
2019-05-22T02:16:57.499Z,97.30
2019-05-22T02:19:28.539Z,98.00
2019-05-22T02:21:59.649Z,97.10
2019-05-22T02:24:30.979Z,96.70
2019-05-22T02:27:02.877Z,96.70
2019-05-22T02:29:32.622Z,97.00
2019-05-22T02:32:02.200Z,96.30
2019-05-22T02:34:31.984Z,96.30
2019-05-22T02:37:01.574Z,96.70
2019-05-22T02:39:32.724Z,96.90
2019-05-22T02:42:08.449Z,96.50
2019-05-22T02:44:38.084Z,96.90
2019-05-22T02:47:18.807Z,96.70
2019-05-22T02:49:41.153Z,96.90
2019-05-22T02:52:11.383Z,97.50
2019-05-22T02:54:41.305Z,97.40
2019-05-22T02:57:11.666Z,97.00
2019-05-22T02:59:42.204Z,96.50
2019-05-22T03:02:14.056Z,97.10
2019-05-22T03:05:09.771Z,97.80
2019-05-22T03:07:41.504Z,98.30
2019-05-22T03:10:13.315Z,98.30
2019-05-22T03:12:45.866Z,97.80
2019-05-22T03:15:17.886Z,96.60
2019-05-22T03:17:51.124Z,95.30
2019-05-22T03:20:22.618Z,95.10
2019-05-22T03:23:14.375Z,94.90
2019-05-22T03:25:44.530Z,95.00
2019-05-22T03:28:14.267Z,95.20
2019-05-22T03:30:45.188Z,95.60
2019-05-22T03:33:16.132Z,95.50
2019-05-22T03:35:50.938Z,95.60
2019-05-22T03:38:21.574Z,95.80
2019-05-22T03:40:53.340Z,95.60
2019-05-22T03:43:27.903Z,95.60
2019-05-22T03:45:58.983Z,95.10
2019-05-22T03:48:36.404Z,95.60
2019-05-22T03:51:13.348Z,96.50
2019-05-22T03:53:43.827Z,96.80
2019-05-22T03:56:15.073Z,96.90
2019-05-22T03:58:46.015Z,96.30
2019-05-22T04:01:15.610Z,95.80
2019-05-22T04:03:45.715Z,95.30
2019-05-22T04:06:17.468Z,95.60
2019-05-22T04:08:47.577Z,95.50
2019-05-22T04:11:19.068Z,95.70
2019-05-22T04:13:48.969Z,95.80
2019-05-22T04:16:19.968Z,96.30
2019-05-22T04:18:51.101Z,95.80
2019-05-22T04:21:20.578Z,95.80
2019-05-22T04:23:50.855Z,96.30
2019-05-22T04:26:20.619Z,95.70
2019-05-22T04:28:52.495Z,95.60
2019-05-22T04:31:40.881Z,95.20
2019-05-22T04:34:11.211Z,95.60
2019-05-22T04:36:41.020Z,96.00
2019-05-22T04:39:22.135Z,96.30
2019-05-22T04:41:52.815Z,96.30
2019-05-22T04:44:23.996Z,96.80
2019-05-22T04:46:54.356Z,96.30
2019-05-22T04:49:24.608Z,96.10
2019-05-22T04:51:54.693Z,96.00
2019-05-22T04:54:24.603Z,95.50
2019-05-22T04:56:54.196Z,95.50
2019-05-22T04:59:24.015Z,95.50
2019-05-22T05:01:53.867Z,95.60
2019-05-22T05:04:23.912Z,95.30
2019-05-22T05:06:53.869Z,95.40
2019-05-22T05:09:23.778Z,95.30
2019-05-22T05:11:54.320Z,95.10
2019-05-22T05:14:24.265Z,95.30
2019-05-22T05:16:54.118Z,95.40
2019-05-22T05:19:23.614Z,95.30
2019-05-22T05:21:53.007Z,95.50
2019-05-22T05:24:22.315Z,95.70
2019-05-22T05:26:52.825Z,95.80
2019-05-22T05:29:26.646Z,96.30
2019-05-22T05:31:56.206Z,96.30
2019-05-22T05:34:41.353Z,96.30
2019-05-22T05:37:13.476Z,96.30
2019-05-22T05:40:04.334Z,96.70
2019-05-22T05:42:34.281Z,96.00
2019-05-22T05:45:05.018Z,96.50
2019-05-22T05:47:34.902Z,96.70
2019-05-22T05:50:06.868Z,96.80
2019-05-22T05:52:38.090Z,96.70
2019-05-22T05:55:08.117Z,96.50
2019-05-22T05:57:40.880Z,96.30
2019-05-22T06:00:14.222Z,96.50
2019-05-22T06:02:56.190Z,96.50
2019-05-22T06:05:15.127Z,95.80
2019-05-22T06:07:45.064Z,95.90
2019-05-22T06:10:28.063Z,96.50
2019-05-22T06:13:00.418Z,95.90
2019-05-22T06:15:47.174Z,95.90
2019-05-22T06:18:31.738Z,96.00
2019-05-22T06:21:04.270Z,95.90
2019-05-22T06:23:39.471Z,95.90
2019-05-22T06:26:10.945Z,96.30
2019-05-22T06:28:42.217Z,96.50
2019-05-22T06:31:31.363Z,96.30
2019-05-22T06:34:01.026Z,96.10
2019-05-22T06:36:37.415Z,96.50
2019-05-22T06:39:09.967Z,96.70
2019-05-22T06:41:41.535Z,96.80
2019-05-22T06:44:33.242Z,97.00
2019-05-22T06:47:04.156Z,96.20
2019-05-22T06:49:36.568Z,96.10
2019-05-22T06:52:07.471Z,96.50
2019-05-22T06:54:38.293Z,96.80
2019-05-22T06:57:13.769Z,97.40
2019-05-22T06:59:43.631Z,97.10
2019-05-22T07:02:15.558Z,96.60
2019-05-22T07:04:46.228Z,96.70
2019-05-22T07:07:17.382Z,96.70
2019-05-22T07:09:46.687Z,96.80
2019-05-22T07:12:18.164Z,97.40
2019-05-22T07:15:06.469Z,97.10
2019-05-22T07:17:37.331Z,97.00
2019-05-22T07:20:08.554Z,96.90
2019-05-22T07:22:39.067Z,97.00
2019-05-22T07:25:09.517Z,96.80
2019-05-22T07:27:41.209Z,96.70
2019-05-22T07:30:11.017Z,96.20
2019-05-22T07:32:41.121Z,96.40
2019-05-22T07:35:10.759Z,96.70
2019-05-22T07:37:45.012Z,96.20
2019-05-22T07:40:15.407Z,96.90
2019-05-22T07:42:45.055Z,96.60
2019-05-22T07:45:15.202Z,97.40
2019-05-22T07:47:44.977Z,96.70
2019-05-22T07:50:15.719Z,96.30
2019-05-22T07:52:45.012Z,97.00
2019-05-22T07:55:15.591Z,98.30
2019-05-22T07:57:48.549Z,98.30
2019-05-22T08:00:18.396Z,98.30
2019-05-22T08:02:49.014Z,98.30
2019-05-22T08:05:21.105Z,98.30
2019-05-22T08:07:55.342Z,98.30
2019-05-22T08:10:25.593Z,98.30
2019-05-22T08:12:55.712Z,98.30
2019-05-22T08:15:27.655Z,98.30
2019-05-22T08:17:57.028Z,98.30
2019-05-22T08:20:26.338Z,98.30
2019-05-22T08:22:56.770Z,98.30
2019-05-22T08:25:26.444Z,98.30
2019-05-22T08:27:55.773Z,98.30
2019-05-22T08:30:25.680Z,98.30
2019-05-22T08:32:57.407Z,98.30
2019-05-22T08:35:27.828Z,98.30
2019-05-22T08:37:58.208Z,98.30
2019-05-22T08:40:28.147Z,98.30
2019-05-22T08:42:57.586Z,98.30
2019-05-22T08:45:27.123Z,98.30
2019-05-22T08:47:56.880Z,98.30
2019-05-22T08:50:27.090Z,98.30
2019-05-22T08:52:56.603Z,98.30
2019-05-22T08:55:26.243Z,98.30
2019-05-22T08:57:56.496Z,98.30
2019-05-22T09:00:27.572Z,98.30
2019-05-22T09:02:56.897Z,98.30
2019-05-22T09:05:27.682Z,98.30
2019-05-22T09:07:57.086Z,98.30
2019-05-22T09:10:26.903Z,98.30
2019-05-22T09:12:56.245Z,98.30
2019-05-22T09:15:26.655Z,98.30
2019-05-22T09:17:56.136Z,98.30
2019-05-22T09:20:25.794Z,98.30
2019-05-22T09:22:55.266Z,98.30
2019-05-22T09:25:24.954Z,98.30
2019-05-22T09:27:54.371Z,98.30
2019-05-22T09:30:24.780Z,98.20
2019-05-22T09:32:54.198Z,98.30
2019-05-22T09:35:23.607Z,98.30
2019-05-22T09:37:53.165Z,98.10
2019-05-22T09:40:23.727Z,98.30
2019-05-22T09:42:53.043Z,97.80
2019-05-22T09:45:22.790Z,97.80
2019-05-22T09:47:53.257Z,98.30
2019-05-22T09:50:24.162Z,98.30
2019-05-22T09:52:58.007Z,98.30
2019-05-22T09:55:25.479Z,98.30
2019-05-22T09:57:55.055Z,98.30
2019-05-22T10:00:25.080Z,98.30
2019-05-22T10:02:54.581Z,98.30
2019-05-22T10:05:23.883Z,98.30
2019-05-22T10:08:00.389Z,98.30
2019-05-22T10:10:26.711Z,98.30
2019-05-22T10:12:56.568Z,98.30
2019-05-22T10:15:26.391Z,97.40
2019-05-22T10:17:56.142Z,96.70
2019-05-22T10:20:26.115Z,96.30
2019-05-22T10:22:55.966Z,96.50
2019-05-22T10:25:26.238Z,96.90
2019-05-22T10:27:59.120Z,96.60
2019-05-22T10:30:27.224Z,95.70
2019-05-22T10:32:56.715Z,95.30
2019-05-22T10:35:28.207Z,94.90
2019-05-22T10:37:58.043Z,94.60
2019-05-22T10:40:28.283Z,94.70
2019-05-22T10:42:57.776Z,94.50
2019-05-22T10:45:27.547Z,94.60
2019-05-22T10:47:57.538Z,96.00
2019-05-22T10:50:27.659Z,97.00
2019-05-22T10:52:58.290Z,96.80
2019-05-22T10:55:28.377Z,95.90
2019-05-22T10:57:58.179Z,96.20
2019-05-22T11:00:27.737Z,96.00
2019-05-22T11:02:57.911Z,96.10
2019-05-22T11:05:27.439Z,96.20
2019-05-22T11:07:57.986Z,95.90
2019-05-22T11:10:27.546Z,95.20
2019-05-22T11:12:57.235Z,97.00
2019-05-22T11:15:26.818Z,96.30
2019-05-22T11:17:56.692Z,96.10
2019-05-22T11:20:27.791Z,96.10
2019-05-22T11:22:57.461Z,95.20
2019-05-22T11:25:27.191Z,94.90
2019-05-22T11:27:56.519Z,93.90
2019-05-22T11:30:26.105Z,93.90
2019-05-22T11:32:56.215Z,94.10
2019-05-22T11:35:27.454Z,94.90
2019-05-22T11:37:56.827Z,95.40
2019-05-22T11:40:26.922Z,94.70
2019-05-22T11:42:57.632Z,95.50
2019-05-22T11:45:27.875Z,95.30
2019-05-22T11:47:57.175Z,92.80
2019-05-22T11:50:27.810Z,92.60
2019-05-22T11:52:57.108Z,93.00
2019-05-22T11:55:42.796Z,93.60
2019-05-22T11:57:57.606Z,90.70
2019-05-22T12:00:27.609Z,88.90
2019-05-22T12:02:57.561Z,88.70
2019-05-22T12:05:26.995Z,90.10
2019-05-22T12:07:56.770Z,89.40
2019-05-22T12:10:26.502Z,89.70
2019-05-22T12:12:56.139Z,88.70
2019-05-22T12:15:28.302Z,87.70
2019-05-22T12:17:58.243Z,87.50
2019-05-22T12:20:29.262Z,88.40
2019-05-22T12:22:58.720Z,87.10
2019-05-22T12:25:28.756Z,87.30
2019-05-22T12:27:59.129Z,88.30
2019-05-22T12:30:28.557Z,87.10
2019-05-22T12:32:59.158Z,87.90
2019-05-22T12:35:29.159Z,87.90
2019-05-22T12:38:00.313Z,87.10
2019-05-22T12:40:33.735Z,84.50
2019-05-22T12:43:04.110Z,84.80
2019-05-22T12:45:34.214Z,85.90
2019-05-22T12:48:04.321Z,84.50
2019-05-22T12:50:35.063Z,84.00
2019-05-22T12:53:06.787Z,82.40
2019-05-22T12:55:36.534Z,84.00
2019-05-22T12:58:06.535Z,82.10
2019-05-22T13:00:36.326Z,82.40
2019-05-22T13:03:07.444Z,82.10
2019-05-22T13:05:37.650Z,82.50
2019-05-22T13:08:08.000Z,82.60
2019-05-22T13:10:37.950Z,80.30
2019-05-22T13:13:07.689Z,80.90
2019-05-22T13:15:38.731Z,80.70
2019-05-22T13:18:10.862Z,80.20
2019-05-22T13:20:44.911Z,80.20
2019-05-22T13:23:17.541Z,81.00
2019-05-22T13:25:46.898Z,80.90
2019-05-22T13:28:18.143Z,81.00
2019-05-22T13:30:53.439Z,81.50
2019-05-22T13:33:26.622Z,80.40
2019-05-22T13:35:56.804Z,80.90
2019-05-22T13:38:29.255Z,81.00
2019-05-22T13:40:59.771Z,81.50
2019-05-22T13:43:29.692Z,81.00
2019-05-22T13:45:59.495Z,81.50
2019-05-22T13:48:29.207Z,81.50
2019-05-22T13:50:59.987Z,81.30
2019-05-22T13:53:29.931Z,80.70
2019-05-22T13:55:59.474Z,79.80
2019-05-22T13:58:30.165Z,78.60
2019-05-22T14:00:59.691Z,78.70
2019-05-22T14:03:29.656Z,79.30
2019-05-22T14:05:59.342Z,79.10
2019-05-22T14:08:28.987Z,78.40
2019-05-22T14:10:59.106Z,78.70
2019-05-22T14:13:29.107Z,79.70
2019-05-22T14:15:58.632Z,79.40
2019-05-22T14:18:28.497Z,79.50
2019-05-22T14:20:58.107Z,79.50
2019-05-22T14:23:27.477Z,78.80
2019-05-22T14:25:57.044Z,79.10
2019-05-22T14:28:27.269Z,78.60
2019-05-22T14:30:56.915Z,79.10
2019-05-22T14:33:28.263Z,79.80
2019-05-22T14:35:58.513Z,79.10
2019-05-22T14:38:28.116Z,78.70
2019-05-22T14:40:57.755Z,77.60
2019-05-22T14:43:28.129Z,77.20
2019-05-22T14:45:57.963Z,78.40
2019-05-22T14:48:27.676Z,78.50
2019-05-22T14:50:57.071Z,78.40
2019-05-22T14:53:27.100Z,80.20
2019-05-22T14:55:57.725Z,80.80
2019-05-22T14:58:27.394Z,81.60
2019-05-22T15:00:57.069Z,82.40
2019-05-22T15:03:26.686Z,81.90
2019-05-22T15:05:56.391Z,80.80
2019-05-22T15:08:26.999Z,80.50
2019-05-22T15:10:56.485Z,80.50
2019-05-22T15:13:26.068Z,80.30
2019-05-22T15:15:55.499Z,79.10
2019-05-22T15:18:25.159Z,78.90
2019-05-22T15:20:56.587Z,77.90
2019-05-22T15:23:26.789Z,76.80
2019-05-22T15:25:56.500Z,76.90
2019-05-22T15:28:27.102Z,76.40
2019-05-22T15:30:57.007Z,75.70
2019-05-22T15:33:26.359Z,74.10
2019-05-22T15:35:55.982Z,74.70
2019-05-22T15:38:25.283Z,73.40
2019-05-22T15:40:55.529Z,72.80
2019-05-22T15:43:26.964Z,73.60
2019-05-22T15:45:58.861Z,73.80
2019-05-22T15:48:31.899Z,73.50
2019-05-22T15:51:06.717Z,73.90
2019-05-22T15:56:22.902Z,75.20
2019-05-22T15:58:54.913Z,74.20
2019-05-22T16:01:25.555Z,74.10
2019-05-22T16:03:56.687Z,73.80
2019-05-22T16:06:27.874Z,75.00
2019-05-22T16:08:58.152Z,75.30
2019-05-22T16:11:29.710Z,74.20
2019-05-22T16:14:00.823Z,72.60
2019-05-22T16:16:32.137Z,71.90
2019-05-22T16:19:04.261Z,71.90
2019-05-22T16:21:34.870Z,72.80
2019-05-22T16:24:05.776Z,72.00
2019-05-22T16:26:36.048Z,72.50
2019-05-22T16:29:07.179Z,72.40
2019-05-22T16:31:39.267Z,73.20
2019-05-22T16:34:08.563Z,75.40
2019-05-22T16:36:38.186Z,75.10
2019-05-22T16:39:10.890Z,74.50
2019-05-22T16:41:41.830Z,74.90
2019-05-22T16:44:12.179Z,73.30
2019-05-22T16:46:42.734Z,72.50
2019-05-22T16:49:12.955Z,70.20
2019-05-22T16:51:44.279Z,67.10
2019-05-22T16:54:20.407Z,68.20
2019-05-22T16:56:47.848Z,68.40
2019-05-22T16:59:19.160Z,68.20
2019-05-22T17:01:59.684Z,68.90
2019-05-22T17:04:20.568Z,68.10
2019-05-22T17:06:50.343Z,67.60
2019-05-22T17:09:21.361Z,67.80
2019-05-22T17:11:51.413Z,69.80
2019-05-22T17:14:21.476Z,70.50
2019-05-22T17:16:51.384Z,68.50
2019-05-22T17:19:27.237Z,69.00
2019-05-22T17:21:53.924Z,70.10
2019-05-22T17:24:23.884Z,71.00
2019-05-22T17:26:53.611Z,71.50
2019-05-22T17:29:23.890Z,70.40
2019-05-22T17:31:53.871Z,70.30
2019-05-22T17:34:34.001Z,70.50
2019-05-22T17:37:11.432Z,72.50
2019-05-22T17:39:43.047Z,73.10
2019-05-22T17:42:15.117Z,71.80
2019-05-22T17:44:47.662Z,72.30
2019-05-22T17:47:18.877Z,74.70
2019-05-22T17:49:49.522Z,72.00
2019-05-22T17:52:20.879Z,73.50
2019-05-22T17:54:51.219Z,72.10
2019-05-22T17:57:22.207Z,74.50
2019-05-22T17:59:53.570Z,76.90
2019-05-22T18:02:24.534Z,76.00
2019-05-22T18:04:54.225Z,76.10
2019-05-22T18:07:24.722Z,76.20
2019-05-22T18:09:54.715Z,78.30
2019-05-22T18:12:24.666Z,78.40
2019-05-22T18:14:54.946Z,78.30
2019-05-22T18:17:24.634Z,78.40
2019-05-22T18:19:53.946Z,79.50
2019-05-22T18:22:23.348Z,79.80
2019-05-22T18:24:52.764Z,80.20
2019-05-22T18:27:25.249Z,80.00
2019-05-22T18:29:53.700Z,80.90
2019-05-22T18:32:23.336Z,81.70
2019-05-22T18:34:52.685Z,82.20
2019-05-22T18:37:22.106Z,83.00
2019-05-22T18:39:51.503Z,83.60
2019-05-22T18:42:21.218Z,83.90
2019-05-22T18:44:50.757Z,84.50
2019-05-22T18:47:20.589Z,85.10
2019-05-22T18:49:49.923Z,85.10
2019-05-22T18:52:19.502Z,85.90
2019-05-22T18:54:48.929Z,86.00
2019-05-22T18:57:18.656Z,86.90
2019-05-22T18:59:48.236Z,86.90
2019-05-22T19:02:17.841Z,87.60
2019-05-22T19:04:47.337Z,87.30
2019-05-22T19:07:16.755Z,86.40
2019-05-22T19:09:47.118Z,86.90
2019-05-22T19:12:16.938Z,86.50
2019-05-22T19:14:46.336Z,86.50
2019-05-22T19:17:17.160Z,86.80
2019-05-22T19:19:46.844Z,87.00
2019-05-22T19:22:16.757Z,86.60
2019-05-22T19:24:46.105Z,86.90
2019-05-22T19:27:15.655Z,87.00
2019-05-22T19:29:45.182Z,87.10
2019-05-22T19:32:15.090Z,87.80
2019-05-22T19:34:44.437Z,87.90
2019-05-22T19:37:13.944Z,88.90
2019-05-22T19:39:43.290Z,88.80
2019-05-22T19:42:13.866Z,89.20
2019-05-22T19:44:43.443Z,89.50
2019-05-22T19:47:13.555Z,89.10
2019-05-22T19:49:44.042Z,88.90
2019-05-22T19:52:14.173Z,88.70
2019-05-22T19:54:44.959Z,88.50
2019-05-22T19:57:14.784Z,88.70
2019-05-22T19:59:44.397Z,89.30
2019-05-22T20:02:14.086Z,89.80
2019-05-22T20:04:43.932Z,90.00
2019-05-22T20:07:14.225Z,89.50
2019-05-22T20:09:44.706Z,89.40
2019-05-22T20:12:14.747Z,89.00
2019-05-22T20:14:44.493Z,89.20
2019-05-22T20:17:14.165Z,89.20
2019-05-22T20:19:43.709Z,89.10
2019-05-22T20:22:14.855Z,89.20
2019-05-22T20:24:44.244Z,89.00
2019-05-22T20:27:14.151Z,89.10
2019-05-22T20:29:44.646Z,89.50
2019-05-22T20:32:14.039Z,90.40
2019-05-22T20:34:44.868Z,90.60
2019-05-22T20:37:14.691Z,90.20
2019-05-22T20:39:45.769Z,89.90
2019-05-22T20:42:15.862Z,90.10
2019-05-22T20:44:45.883Z,90.30
2019-05-22T20:47:18.675Z,90.20
2019-05-22T20:49:49.517Z,90.20
2019-05-22T20:52:19.651Z,90.10
2019-05-22T20:54:49.116Z,90.20
2019-05-22T20:57:20.401Z,90.00
2019-05-22T21:00:01.549Z,90.20
2019-05-22T21:02:33.902Z,89.70
2019-05-22T21:05:03.695Z,90.00
2019-05-22T21:07:36.871Z,90.50
2019-05-22T21:10:08.108Z,90.30
2019-05-22T21:12:37.652Z,90.20
2019-05-22T21:15:08.354Z,90.40
2019-05-22T21:17:37.705Z,90.60
2019-05-22T21:20:10.290Z,90.80
2019-05-22T21:22:39.650Z,90.80
2019-05-22T21:25:12.007Z,91.10
2019-05-22T21:27:42.634Z,91.10
2019-05-22T21:30:14.085Z,91.00
2019-05-22T21:32:45.264Z,90.90
2019-05-22T21:35:17.102Z,91.20
2019-05-22T21:37:46.984Z,91.40
2019-05-22T21:40:19.558Z,91.70
2019-05-22T21:42:51.062Z,91.50
2019-05-22T21:45:20.735Z,91.30
2019-05-22T21:47:50.341Z,91.50
2019-05-22T21:50:20.378Z,91.30
2019-05-22T21:52:50.353Z,91.30
2019-05-22T21:55:23.344Z,91.40
2019-05-22T21:57:53.523Z,91.40
2019-05-22T22:00:42.682Z,91.00
2019-05-22T22:03:14.282Z,91.20
2019-05-22T22:05:44.696Z,91.50
2019-05-22T22:08:15.340Z,91.40
2019-05-22T22:10:45.595Z,91.20
2019-05-22T22:13:15.276Z,91.20
2019-05-22T22:15:45.692Z,91.10
2019-05-22T22:18:17.942Z,91.20
2019-05-22T22:20:47.912Z,91.30
2019-05-22T22:23:17.763Z,91.30
2019-05-22T22:25:47.801Z,91.50
2019-05-22T22:28:18.153Z,91.60
2019-05-22T22:30:51.955Z,91.50
2019-05-22T22:33:24.409Z,91.70
2019-05-22T22:35:54.354Z,91.90
2019-05-22T22:38:24.968Z,92.40
2019-05-22T22:40:56.003Z,92.70
2019-05-22T22:43:32.433Z,92.20
2019-05-22T22:46:23.321Z,92.10
2019-05-22T22:48:55.056Z,92.10
2019-05-22T22:51:26.608Z,92.20
2019-05-22T22:53:59.073Z,92.10
2019-05-22T22:56:28.888Z,92.50
2019-05-22T22:58:59.379Z,92.50
2019-05-22T23:01:32.895Z,92.40
2019-05-22T23:04:05.145Z,92.50
2019-05-22T23:06:36.371Z,92.50
2019-05-22T23:09:07.941Z,92.50
2019-05-22T23:11:41.447Z,92.30
2019-05-22T23:14:11.319Z,92.10
2019-05-22T23:16:40.793Z,92.10
2019-05-22T23:19:14.839Z,92.00
2019-05-22T23:21:44.731Z,91.90
2019-05-22T23:24:16.483Z,92.10
2019-05-22T23:26:45.955Z,92.00
2019-05-22T23:29:15.251Z,92.20
2019-05-22T23:31:45.105Z,92.40
2019-05-22T23:34:14.767Z,92.50
2019-05-22T23:36:45.197Z,92.90
2019-05-22T23:39:17.155Z,92.50
2019-05-22T23:41:47.389Z,92.30
2019-05-22T23:44:19.862Z,92.00
2019-05-22T23:46:49.895Z,91.50
2019-05-22T23:49:19.370Z,91.90
2019-05-22T23:51:48.758Z,91.90
2019-05-22T23:54:18.413Z,92.10
2019-05-22T23:56:49.610Z,91.90
2019-05-22T23:59:20.146Z,92.10
